Terminal Aerodrome Forecast
Issued by NWS Topeka, KS

Home | Current Version | Previous Version | Text Only | Print | Product List | Glossary On
Versions: 1 2 3 4 5 6 7 8 9 10 11 12 13 14 15 16 17 18
663
FTUS43 KTOP 062320
TAFTOP
TAF
KTOP 062320Z 0700/0724 22008KT P6SM FEW250
     FM070700 23006KT P6SM SCT100 WS010/24045KT
     FM071300 29006KT P6SM BKN100
     FM071700 30015G22KT P6SM SCT100
     FM071900 30021G30KT P6SM SCT250=

USA.gov is the U.S. government's official web portal to all federal, state and local government web resources and services.